Thunder radar more information blitzortung!


Radar de pluja more information rain snow radar


Visita la nostra xarxa de llocs de meteo:

Template documentation
and downloads

And another site



No particular awareness of the weather is required.    There are no Weather-warnings

Pagina Historial Weather Underground text

Diari Resum Juliol 8, 2017 Unitats:  Mètric    Imperial   Tant
« Previous Dia
SegĂźent Dia »
Diari Setmana Mensual Anual Personalitzada
  Maxima: Minima: Media:
Temperatura: -17.8 °C -6.5 °C -4 °C
Punt de rosada: -17.8 °C -13.2 °C -8.9 °C
Humitat: Humidity % 33 % 58 %
Wind Speed: 0 km/h 0 km/h 15.3 km/h
RĂ fegues de vent: 0 km/h - -
Vent:- - SE
Pression baro: 0 hPa 34164.7 hPa -
Precipitacions: 25.4 mm    
Historical Graphs
 
 
Dades de taula per Juliol 8, 2017
Temps Temperatura Punt de rosada Pression baro Vent Wind Speed RĂ fegues de vent Humitat Rainfall Rate (Hourly)
-17.8 °C -17.8 °C 0 hPa Calm     Humidity % 0 mm
00:00 -3.8 °C -11.4 °C 34327.3 hPa East 6 km/h 6 km/h 42 % 0 mm
10:38 -4.3 °C -12.7 °C 34327.3 hPa SE 3.1 km/h   38 % 0 mm
10:43 -4.3 °C -12.7 °C 34327.3 hPa SE 6 km/h   38 % 0 mm
10:48 -4.3 °C -12.7 °C 34327.3 hPa SE 6 km/h   38 % 0 mm
10:53 -3.8 °C -13 °C 34256.2 hPa ENE 9 km/h 9 km/h 35 % 0 mm
10:58 -3.7 °C -13.1 °C 34256.2 hPa NNW 6 km/h 6 km/h 34 % 0 mm
10:59 -3.7 °C -13.1 °C 34256.2 hPa NNW 6 km/h 6 km/h 34 % 0 mm
11:04 -3.5 °C -13.2 °C 34256.2 hPa NE 16.1 km/h 16.1 km/h 33 % 0 mm
11:09 -3.8 °C -12.8 °C 34256.2 hPa NNE 11.9 km/h 11.9 km/h 36 % 0 mm
11:14 -4.4 °C -12.4 °C 34256.2 hPa ENE 9 km/h 9 km/h 40 % 0 mm
11:19 -4.6 °C -12.3 °C 34256.2 hPa NNE 15 km/h 15 km/h 41 % 0 mm
11:24 -4.2 °C -12.3 °C 34256.2 hPa ENE 17.9 km/h 17.9 km/h 40 % 0 mm
11:29 -3.8 °C -12.3 °C 34256.2 hPa ESE 11.9 km/h 11.9 km/h 38 % 0 mm
11:34 -3.8 °C -12.1 °C 34256.2 hPa East 6 km/h 6 km/h 39 % 0 mm
11:39 -3.4 °C -12.2 °C 34256.2 hPa East 6 km/h 6 km/h 37 % 0 mm
11:44 -3.6 °C -11.4 °C 34256.2 hPa SW 9.3 km/h 9.3 km/h 41 % 0 mm
11:49 -4.1 °C -11.6 °C 34256.2 hPa West 6 km/h 6.3 km/h 43 % 0 mm
11:54 -4 °C -11.8 °C 34256.2 hPa WNW 3.7 km/h 3.7 km/h 41 % 0 mm
11:59 -3.7 °C -12.1 °C 34256.2 hPa West 4.2 km/h   39 % 0 mm
12:04 -3.6 °C -11.5 °C 34256.2 hPa West 3.1 km/h   41 % 0 mm
12:09 -3.5 °C -11.6 °C 34222.3 hPa WSW 6.3 km/h 6.3 km/h 40 % 0 mm
12:14 -3.4 °C -11.7 °C 34222.3 hPa SW 6 km/h 6 km/h 39 % 0 mm
12:19 -3.2 °C -11.6 °C 34222.3 hPa West 9 km/h 9 km/h 39 % 0 mm
12:24 -3.2 °C -11.6 °C 34256.2 hPa WSW 3.1 km/h 3.7 km/h 39 % 0 mm
12:29 -3.2 °C -11.6 °C 34256.2 hPa WSW 8 km/h 8 km/h 39 % 0 mm
12:34 -3.2 °C -11.6 °C 34256.2 hPa SW 19.2 km/h 19.2 km/h 39 % 0 mm
12:39 -3.2 °C -11.6 °C 34256.2 hPa SW 17.9 km/h 17.9 km/h 39 % 0 mm
12:44 -3.4 °C -11.5 °C 34293.4 hPa South 17.9 km/h 17.9 km/h 40 % 0 mm
12:49 -3.2 °C -11.8 °C 34293.4 hPa ESE 20.9 km/h 20.9 km/h 38 % 0 mm
12:54 -3.6 °C -11.7 °C 34256.2 hPa NNW 11.9 km/h 11.9 km/h 40 % 0 mm
12:59 -3.8 °C -11.7 °C 34256.2 hPa SSW 11.9 km/h 11.9 km/h 41 % 0 mm
13:04 -4.5 °C -11.7 °C 34256.2 hPa WSW 11.9 km/h 11.9 km/h 44 % 25.4 mm
13:09 -4.7 °C -11.6 °C 34293.4 hPa SSE 6 km/h 6 km/h 46 % 25.4 mm
13:14 -4.8 °C -11.1 °C 34293.4 hPa South 6 km/h 6 km/h 49 % 25.4 mm
13:19 -4.7 °C -10.8 °C 34293.4 hPa SSE 5.1 km/h 5.1 km/h 50 % 25.4 mm
13:24 -4.5 °C -10.3 °C 34293.4 hPa South 6 km/h 6 km/h 52 % 25.4 mm
13:29 -4.4 °C -10.1 °C 34293.4 hPa ESE 9 km/h 9 km/h 53 % 25.4 mm
13:34 -4.3 °C -9.9 °C 34293.4 hPa ESE 9 km/h 9 km/h 53 % 25.4 mm
13:39 -4.1 °C -9.6 °C 34293.4 hPa ESE 16.1 km/h 16.1 km/h 54 % 25.4 mm
13:44 -4.1 °C -9.4 °C 34293.4 hPa ESE 17.9 km/h 17.9 km/h 55 % 25.4 mm
13:49 -3.9 °C -9.3 °C 34293.4 hPa East 20.9 km/h 20.9 km/h 55 % 25.4 mm
13:54 -3.9 °C -9.4 °C 34327.3 hPa ESE 26.9 km/h 26.9 km/h 54 % 25.4 mm
13:59 -3.8 °C -9.6 °C 34327.3 hPa NNE 26.9 km/h 26.9 km/h 53 % 25.4 mm
14:04 -3.8 °C -9.5 °C 34327.3 hPa SE 20.9 km/h 20.9 km/h 53 % 0 mm
14:09 -3.7 °C -9.4 °C 34327.3 hPa East 20.9 km/h 20.9 km/h 53 % 0 mm
14:14 -3.6 °C -9.3 °C 34327.3 hPa East 29.8 km/h 29.8 km/h 53 % 0 mm
14:19 -3.6 °C -9.3 °C 34327.3 hPa SSE 29.8 km/h 29.8 km/h 53 % 0 mm
14:24 -3.6 °C -9.3 °C 34293.4 hPa NE 38.8 km/h 38.8 km/h 53 % 0 mm
14:29 -3.6 °C -9 °C 34293.4 hPa ESE 23.8 km/h 23.8 km/h 55 % 0 mm
14:34 -3.6 °C -8.9 °C 34293.4 hPa South 25.4 km/h 25.4 km/h 55 % 0 mm
14:39 -3.4 °C -9 °C 34293.4 hPa SE 30.6 km/h 30.6 km/h 54 % 0 mm
14:44 -3.3 °C -8.7 °C 34293.4 hPa East 29.8 km/h 29.8 km/h 55 % 0 mm
14:49 -3.3 °C -9 °C 34293.4 hPa ENE 29.8 km/h 29.8 km/h 53 % 0 mm
14:54 -3.3 °C -9.1 °C 34293.4 hPa ESE 20.9 km/h 20.9 km/h 53 % 0 mm
14:59 -3.3 °C -9.1 °C 34293.4 hPa ENE 25.9 km/h 25.9 km/h 53 % 0 mm
15:04 -3.3 °C -9.1 °C 34293.4 hPa East 37.5 km/h 37.5 km/h 53 % 0 mm
15:09 -3.4 °C -9.1 °C 34293.4 hPa ENE 26.9 km/h 26.9 km/h 53 % 0 mm
15:14 -3.6 °C -8.9 °C 34293.4 hPa ENE 29.8 km/h 29.8 km/h 55 % 0 mm
15:19 -3.7 °C -8.9 °C 34293.4 hPa NNE 20.9 km/h 20.9 km/h 56 % 0 mm
15:24 -3.6 °C -8.8 °C 34293.4 hPa ENE 20.9 km/h 20.9 km/h 56 % 0 mm
15:29 -3.5 °C -8.7 °C 34293.4 hPa East 26.9 km/h 26.9 km/h 56 % 0 mm
15:34 -3.4 °C -8.7 °C 34293.4 hPa ESE 29.8 km/h 29.8 km/h 56 % 0 mm
15:39 -3.3 °C -8.6 °C 34256.2 hPa East 26.9 km/h 26.9 km/h 56 % 0 mm
15:44 -3.2 °C -8.5 °C 34256.2 hPa SE 43.5 km/h 43.5 km/h 56 % 0 mm
15:49 -3.3 °C -8.6 °C 34256.2 hPa ESE 27.7 km/h 27.7 km/h 56 % 0 mm
15:54 -3.3 °C -8.6 °C 34256.2 hPa ENE 35.7 km/h 35.7 km/h 56 % 0 mm
15:59 -3 °C -8.3 °C 34256.2 hPa SE 20.9 km/h 20.9 km/h 56 % 0 mm
16:04 -2.8 °C -8.1 °C 34256.2 hPa ESE 29.8 km/h 29.8 km/h 56 % 0 mm
16:09 -2.8 °C -8.2 °C 34256.2 hPa East 38.8 km/h 38.8 km/h 55 % 0 mm
16:14 -2.8 °C -8.1 °C 34256.2 hPa East 31.9 km/h 31.9 km/h 56 % 0 mm
16:19 -2.8 °C -8.2 °C 34256.2 hPa ENE 23.8 km/h 23.8 km/h 55 % 0 mm
16:24 -3 °C -8.1 °C 34256.2 hPa East 32.8 km/h 32.8 km/h 57 % 0 mm
16:29 -2.9 °C -8.1 °C 34256.2 hPa East 32.8 km/h 32.8 km/h 57 % 0 mm
16:34 -2.9 °C -8.1 °C 34256.2 hPa SE 35.7 km/h 35.7 km/h 57 % 0 mm
16:39 -2.9 °C -8.1 °C 34256.2 hPa East 35.7 km/h 35.7 km/h 57 % 0 mm
16:44 -3 °C -8.1 °C 34256.2 hPa ESE 38.8 km/h 38.8 km/h 57 % 0 mm
16:49 -2.9 °C -7.9 °C 34256.2 hPa ESE 32.8 km/h 32.8 km/h 58 % 0 mm
16:54 -3 °C -8.1 °C 34256.2 hPa ESE 35.4 km/h 35.4 km/h 57 % 0 mm
16:59 -3 °C -7.9 °C 34256.2 hPa ESE 36.2 km/h 36.2 km/h 58 % 0 mm
17:04 -2.9 °C -8 °C 34256.2 hPa ENE 23.8 km/h 23.8 km/h 57 % 0 mm
17:09 -2.9 °C -8 °C 34256.2 hPa ENE 20.9 km/h 20.9 km/h 57 % 0 mm
17:14 -2.8 °C -7.9 °C 34256.2 hPa ESE 26.9 km/h 26.9 km/h 57 % 0 mm
17:19 -2.7 °C -8.2 °C 34256.2 hPa East 32.3 km/h 32.3 km/h 55 % 0 mm
17:24 -2.7 °C -8.1 °C 34256.2 hPa ESE 32.8 km/h 32.8 km/h 55 % 0 mm
17:29 -2.7 °C -8.2 °C 34256.2 hPa East 29.8 km/h 29.8 km/h 55 % 0 mm
17:34 -2.6 °C -8 °C 34256.2 hPa ESE 23.8 km/h 23.8 km/h 55 % 0 mm
17:39 -2.6 °C -8.4 °C 34222.3 hPa East 29.8 km/h 29.8 km/h 53 % 0 mm
17:44 -2.6 °C -8.3 °C 34222.3 hPa NE 32.8 km/h 32.8 km/h 53 % 0 mm
17:49 -2.6 °C -8.4 °C 34222.3 hPa ENE 26.9 km/h 26.9 km/h 53 % 0 mm
17:54 -2.6 °C -8.3 °C 34222.3 hPa ENE 23.8 km/h 23.8 km/h 53 % 0 mm
17:59 -2.6 °C -8.2 °C 34222.3 hPa ENE 23.8 km/h 23.8 km/h 54 % 0 mm
18:04 -2.5 °C -8.1 °C 34222.3 hPa NE 20.9 km/h 20.9 km/h 54 % 0 mm
18:09 -2.4 °C -8.2 °C 34198.6 hPa East 26.9 km/h 26.9 km/h 53 % 0 mm
18:14 -2.4 °C -8.2 °C 34198.6 hPa SE 22.5 km/h 22.5 km/h 53 % 0 mm
18:15 -2.4 °C -8.2 °C 34198.6 hPa ESE 26.9 km/h 26.9 km/h 53 % 0 mm
18:20 -2.6 °C -8.3 °C 34198.6 hPa ENE 15 km/h 15 km/h 53 % 0 mm
18:25 -2.5 °C -8.3 °C 34222.3 hPa ESE 23.8 km/h 23.8 km/h 53 % 0 mm
18:28 -2.4 °C -8.2 °C 34222.3 hPa ESE 17.9 km/h 17.9 km/h 53 % 0 mm
18:33 -2.5 °C -8.3 °C 34222.3 hPa ESE 26.9 km/h 26.9 km/h 53 % 0 mm
18:38 -2.5 °C -8.3 °C 34222.3 hPa ESE 23.8 km/h 23.8 km/h 53 % 0 mm
18:43 -2.6 °C -8.2 °C 34222.3 hPa ESE 17.9 km/h 17.9 km/h 54 % 0 mm
18:48 -2.4 °C -8.1 °C 34222.3 hPa ESE 17.9 km/h 17.9 km/h 54 % 0 mm
18:53 -2.5 °C -8.1 °C 34222.3 hPa ESE 20.9 km/h 20.9 km/h 54 % 0 mm
18:58 -2.5 °C -8.1 °C 34222.3 hPa East 15 km/h 16.6 km/h 54 % 0 mm
19:03 -2.4 °C -8.1 °C 34222.3 hPa ESE 17.9 km/h 17.9 km/h 54 % 0 mm
19:08 -2.6 °C -8.3 °C 34222.3 hPa ENE 11.9 km/h 11.9 km/h 53 % 0 mm
19:13 -2.6 °C -8.2 °C 34198.6 hPa ESE 15 km/h 15.3 km/h 54 % 0 mm
19:18 -2.6 °C -8.2 °C 34198.6 hPa NE 20.9 km/h 20.9 km/h 54 % 0 mm
19:23 -2.7 °C -8.1 °C 34198.6 hPa ESE 19.6 km/h 19.6 km/h 55 % 0 mm
19:28 -2.8 °C -8.1 °C 34198.6 hPa ESE 20.9 km/h 20.9 km/h 56 % 0 mm
19:33 -2.8 °C -7.9 °C 34198.6 hPa SSE 17.9 km/h 17.9 km/h 57 % 0 mm
19:38 -2.8 °C -7.8 °C 34198.6 hPa ESE 17.9 km/h 17.9 km/h 58 % 0 mm
19:40 -5.2 °C -7.6 °C 34256.2 hPa WNW 2.6 km/h 5.1 km/h 77 % 0 mm
19:43 -2.8 °C -7.8 °C 34198.6 hPa ESE 23.8 km/h 23.8 km/h 58 % 0 mm
19:48 -2.9 °C -7.9 °C 34198.6 hPa SE 12.7 km/h 12.7 km/h 58 % 0 mm
19:50 -5.2 °C -7.6 °C 34222.3 hPa NE 2.6 km/h 2.6 km/h 77 % 0 mm
19:53 -3 °C -7.9 °C 34198.6 hPa ESE 11.9 km/h 11.9 km/h 58 % 0 mm
19:58 -3.1 °C -7.9 °C 34198.6 hPa ESE 15 km/h 15 km/h 59 % 0 mm
20:00 -5.3 °C -7.6 °C 34222.3 hPa Calm   2.6 km/h 77 % 0 mm
20:03 -3.2 °C -7.9 °C 34198.6 hPa ESE 15 km/h 15 km/h 59 % 0 mm
20:08 -3.2 °C -7.9 °C 34198.6 hPa ESE 11.9 km/h 11.9 km/h 60 % 0 mm
20:10 -5.3 °C -7.6 °C 34222.3 hPa Calm   2.6 km/h 77 % 0 mm
20:13 -3.3 °C -8 °C 34198.6 hPa ESE 17.9 km/h 17.9 km/h 60 % 0 mm
20:18 -3.4 °C -8 °C 34198.6 hPa East 11.9 km/h 11.9 km/h 60 % 0 mm
20:20 -5.3 °C -7.6 °C 34222.3 hPa NNE 2.6 km/h 2.6 km/h 78 % 0 mm
20:23 -3.4 °C -7.9 °C 34198.6 hPa ESE 16.6 km/h 16.6 km/h 61 % 0 mm
20:28 -3.6 °C -7.9 °C 34198.6 hPa ENE 17.9 km/h 17.9 km/h 62 % 0 mm
20:30 -5.3 °C -7.6 °C 34222.3 hPa Calm   5.1 km/h 78 % 0 mm
20:33 -3.7 °C -8 °C 34198.6 hPa ENE 23.8 km/h 23.8 km/h 62 % 0 mm
20:38 -3.7 °C -7.9 °C 34198.6 hPa East 15 km/h 15 km/h 63 % 0 mm
20:40 -5.4 °C -7.6 °C 34222.3 hPa Calm   2.6 km/h 78 % 0 mm
20:43 -3.8 °C -7.9 °C 34198.6 hPa ESE 20.9 km/h 20.9 km/h 64 % 0 mm
20:48 -3.9 °C -7.9 °C 34198.6 hPa ESE 22 km/h 22 km/h 64 % 0 mm
20:50 -5.4 °C -7.7 °C 34222.3 hPa Calm     78 % 0 mm
20:53 -4 °C -7.6 °C 34198.6 hPa ESE 20.9 km/h 20.9 km/h 67 % 0 mm
20:58 -4.1 °C -7.7 °C 34198.6 hPa ESE 15 km/h 15 km/h 67 % 0 mm
21:00 -5.4 °C -7.7 °C 34222.3 hPa Calm   2.6 km/h 78 % 0 mm
21:03 -4.1 °C -7.7 °C 34198.6 hPa ESE 11.9 km/h 11.9 km/h 67 % 0 mm
21:08 -4.1 °C -7.6 °C 34198.6 hPa ENE 17.9 km/h 17.9 km/h 68 % 0 mm
21:10 -5.5 °C -7.7 °C 34222.3 hPa WNW 2.6 km/h 2.6 km/h 78 % 0 mm
21:13 -4.2 °C -7.7 °C 34198.6 hPa SE 10.3 km/h 10.3 km/h 68 % 0 mm
21:18 -4.2 °C -7.7 °C 34198.6 hPa ESE 11.9 km/h 11.9 km/h 68 % 0 mm
21:20 -5.6 °C -7.7 °C 34222.3 hPa Calm   5.1 km/h 79 % 0 mm
21:23 -4.3 °C -7.7 °C 34198.6 hPa ESE 16.1 km/h 16.1 km/h 69 % 0 mm
21:28 -4.3 °C -7.5 °C 34164.7 hPa East 17.9 km/h 17.9 km/h 70 % 0 mm
21:30 -5.6 °C -7.7 °C 34222.3 hPa Calm   5.1 km/h 79 % 0 mm
21:33 -4.3 °C -7.6 °C 34164.7 hPa ENE 17.9 km/h 17.9 km/h 70 % 0 mm
21:38 -4.4 °C -7.6 °C 34164.7 hPa ENE 11.9 km/h 11.9 km/h 70 % 0 mm
21:40 -5.7 °C -8 °C 34222.3 hPa SE 2.6 km/h 5.1 km/h 77 % 0 mm
21:43 -4.4 °C -7.6 °C 34198.6 hPa East 14.5 km/h 14.5 km/h 70 % 0 mm
21:48 -4.4 °C -7.7 °C 34198.6 hPa ESE 15 km/h 15 km/h 70 % 0 mm
21:50 -5.7 °C -8 °C 34198.6 hPa SW 2.6 km/h 5.1 km/h 77 % 0 mm
21:53 -4.4 °C -7.6 °C 34198.6 hPa ESE 11.9 km/h 11.9 km/h 71 % 0 mm
21:58 -4.5 °C -7.4 °C 34198.6 hPa NNE 9 km/h 9 km/h 72 % 0 mm
22:00 -5.7 °C -8.3 °C 34198.6 hPa WSW 7.7 km/h 7.7 km/h 75 % 0 mm
22:03 -4.5 °C -7.6 °C 34198.6 hPa ENE 6 km/h 6 km/h 71 % 0 mm
22:08 -4.6 °C -7.6 °C 34198.6 hPa North 6 km/h 6 km/h 72 % 0 mm
22:10 -5.8 °C -8.3 °C 34198.6 hPa WSW 2.6 km/h 5.1 km/h 75 % 0 mm
22:13 -4.6 °C -7.6 °C 34222.3 hPa NE 6 km/h 6 km/h 72 % 0 mm
22:18 -4.7 °C -7.6 °C 34222.3 hPa East 9 km/h 9 km/h 72 % 0 mm
22:20 -5.8 °C -8.7 °C 34198.6 hPa Calm   2.6 km/h 73 % 0 mm
22:23 -4.7 °C -7.6 °C 34222.3 hPa East 9 km/h 9 km/h 72 % 0 mm
22:28 -4.7 °C -7.6 °C 34222.3 hPa ENE 6 km/h 6 km/h 72 % 0 mm
22:30 -5.8 °C -8.7 °C 34198.6 hPa Calm   5.1 km/h 72 % 0 mm
22:33 -4.7 °C -7.7 °C 34222.3 hPa ENE 9 km/h 9 km/h 72 % 0 mm
22:38 -4.7 °C -7.6 °C 34222.3 hPa ENE 6.3 km/h 6.3 km/h 73 % 0 mm
22:40 -5.9 °C -8.8 °C 34198.6 hPa Calm   2.6 km/h 72 % 0 mm
22:43 -4.7 °C -7.6 °C 34256.2 hPa ESE 6.3 km/h 6.3 km/h 73 % 0 mm
22:48 -4.7 °C -7.4 °C 34256.2 hPa East 11.9 km/h 11.9 km/h 74 % 0 mm
22:50 -6.1 °C -9 °C 34198.6 hPa WSW 2.6 km/h 5.1 km/h 72 % 0 mm
22:53 -4.7 °C -7.4 °C 34256.2 hPa SE 8 km/h 8 km/h 74 % 0 mm
22:58 -4.8 °C -7.5 °C 34256.2 hPa SE 6 km/h 6 km/h 74 % 0 mm
23:00 -6.2 °C -9.1 °C 34198.6 hPa Calm   5.1 km/h 72 % 0 mm
23:03 -4.8 °C -7.5 °C 34256.2 hPa ENE 8 km/h 8 km/h 74 % 0 mm
23:08 -4.8 °C -7.4 °C 34256.2 hPa East 6.3 km/h 6.3 km/h 75 % 0 mm
23:10 -6.2 °C -9.1 °C 34198.6 hPa SW 5.1 km/h 5.1 km/h 72 % 0 mm
23:13 -4.8 °C -7.6 °C 34256.2 hPa SE 6 km/h 6 km/h 74 % 0 mm
23:18 -4.9 °C -7.6 °C 34256.2 hPa ENE 3.1 km/h 3.1 km/h 74 % 0 mm
23:20 -6.3 °C -9.2 °C 34198.6 hPa WSW 5.1 km/h 10.3 km/h 72 % 0 mm
23:23 -4.9 °C -7.7 °C 34256.2 hPa SW 6 km/h 6 km/h 74 % 0 mm
23:28 -5 °C -7.7 °C 34256.2 hPa SW 3.7 km/h 3.7 km/h 74 % 0 mm
23:30 -6.3 °C -9.2 °C 34198.6 hPa WSW 2.6 km/h 7.7 km/h 72 % 0 mm
23:33 -5.1 °C -7.7 °C 34256.2 hPa SW 6 km/h 6 km/h 75 % 0 mm
23:38 -5.1 °C -7.7 °C 34256.2 hPa Calm     75 % 0 mm
23:40 -6.4 °C -9.3 °C 34198.6 hPa SW 2.6 km/h 5.1 km/h 72 % 0 mm
23:43 -5.1 °C -7.7 °C 34256.2 hPa Calm     75 % 0 mm
23:48 -5.1 °C -7.7 °C 34256.2 hPa SW 6 km/h 6 km/h 75 % 0 mm
23:50 -6.5 °C -9.4 °C 34164.7 hPa SW 5.1 km/h 5.1 km/h 72 % 0 mm
23:53 -5.2 °C -7.7 °C 34256.2 hPa SW 6 km/h 6 km/h 75 % 0 mm
23:58 -5.2 °C -7.8 °C 34256.2 hPa WSW 6 km/h 6 km/h 75 % 0 mm
Meteo Sesrovires
Elogis d' Weather Underground - 4 mb

Guio original per  Jim McMurry - jmcmurry@mwt.net Adaptat per a la plantilla per  Wim van der Kuil - Leuven-Template.eu

Trobareu la nostra informacio del temps tambe a:

Weather Underground

AWEKAS